Time;durP1;ratioP1;P1;durP2;ratioP2;P2;SDS_P1;SDS_P2;PMS_P1;PMS_P2;Temp;Humidity;BMP_temperature;BMP_pressure;BME280_temperature;BME280_humidity;BME280_pressure;Samples;Min_cycle;Max_cycle;Signal;HPM_P1;HPM_P2
2023/05/01 00:01:08;;;;;;;6.25;3.45;;;11.20;88.60;;;;;;5035365;28;20052;-69
2023/05/01 00:03:34;;;;;;;6.38;3.03;;;11.10;88.50;;;;;;5035610;28;20041;-69
2023/05/01 00:06:02;;;;;;;7.00;3.00;;;11.10;88.60;;;;;;5035254;28;20437;-69
2023/05/01 00:08:27;;;;;;;6.85;3.20;;;11.10;89.00;;;;;;5019335;28;20048;-69
2023/05/01 00:10:53;;;;;;;8.30;3.20;;;11.10;89.10;;;;;;5035271;28;20045;-69
2023/05/01 00:13:20;;;;;;;6.57;3.47;;;11.00;89.50;;;;;;5035135;28;20044;-69
2023/05/01 00:15:46;;;;;;;7.20;3.55;;;11.00;89.70;;;;;;5053355;28;20040;-69
2023/05/01 00:18:13;;;;;;;8.90;3.50;;;11.00;90.00;;;;;;5035089;28;20122;-69
2023/05/01 00:20:38;;;;;;;5.93;3.30;;;11.00;90.20;;;;;;5035134;28;20044;-69
2023/05/01 00:23:04;;;;;;;7.95;3.40;;;11.00;90.20;;;;;;5041214;28;20146;-69
2023/05/01 00:25:30;;;;;;;7.88;3.58;;;10.90;90.30;;;;;;5041717;28;20553;-69
2023/05/01 00:27:56;;;;;;;7.63;4.50;;;10.90;90.60;;;;;;5041911;28;20102;-69
2023/05/01 00:30:21;;;;;;;7.70;3.45;;;10.90;90.70;;;;;;5041696;28;20497;-69
2023/05/01 00:32:47;;;;;;;9.75;3.92;;;10.90;90.80;;;;;;5041823;28;20041;-69
2023/05/01 00:35:12;;;;;;;6.75;3.67;;;10.90;90.90;;;;;;5041554;28;20049;-69
2023/05/01 00:37:38;;;;;;;6.47;4.18;;;10.80;91.10;;;;;;5041817;28;20115;-69
2023/05/01 00:40:05;;;;;;;10.13;4.13;;;10.80;91.30;;;;;;5042505;28;20478;-69
2023/05/01 00:42:35;;;;;;;8.68;3.85;;;10.80;91.40;;;;;;5041550;28;20041;-69
2023/05/01 00:45:00;;;;;;;6.20;3.90;;;10.70;91.70;;;;;;5041525;28;20112;-69
2023/05/01 00:47:26;;;;;;;7.20;3.72;;;10.70;91.90;;;;;;5041360;28;20167;-69
2023/05/01 00:49:52;;;;;;;8.80;3.40;;;10.70;92.00;;;;;;5041435;28;20039;-69
2023/05/01 00:52:18;;;;;;;8.38;3.90;;;10.60;92.30;;;;;;5041733;28;20036;-69
2023/05/01 00:54:50;;;;;;;6.57;3.90;;;10.60;92.30;;;;;;5041372;28;20039;-69
2023/05/01 00:57:20;;;;;;;7.47;4.50;;;10.60;92.40;;;;;;5025120;28;20037;-69
2023/05/01 00:59:46;;;;;;;9.23;4.35;;;10.60;92.60;;;;;;5041380;28;20400;-69
2023/05/01 01:02:12;;;;;;;6.68;3.83;;;10.50;92.90;;;;;;5041903;28;20047;-69
2023/05/01 01:04:43;;;;;;;6.18;3.90;;;10.60;92.90;;;;;;5041327;28;20386;-69
2023/05/01 01:07:09;;;;;;;9.50;4.07;;;10.50;93.00;;;;;;5041455;28;20045;-69
2023/05/01 01:09:56;;;;;;;7.78;3.88;;;10.50;93.20;;;;;;5041590;28;20074;-69
2023/05/01 01:12:37;;;;;;;8.13;3.38;;;10.50;93.40;;;;;;5041560;28;20051;-69
2023/05/01 01:15:26;;;;;;;9.38;4.00;;;10.40;93.50;;;;;;5041205;28;20049;-69
2023/05/01 01:18:11;;;;;;;9.30;3.95;;;10.40;93.70;;;;;;5041226;28;20560;-69
2023/05/01 01:20:43;;;;;;;7.47;4.00;;;10.30;94.00;;;;;;5041250;28;20051;-69
2023/05/01 01:23:35;;;;;;;7.43;3.85;;;10.20;94.20;;;;;;5041466;28;20095;-69
2023/05/01 01:26:22;;;;;;;7.85;3.80;;;10.20;94.30;;;;;;5041197;28;20444;-69
2023/05/01 01:29:25;;;;;;;7.20;4.28;;;10.10;94.60;;;;;;5041281;28;20044;-70
2023/05/01 01:32:30;;;;;;;7.70;4.10;;;10.10;94.90;;;;;;5041358;28;20098;-70
2023/05/01 01:35:06;;;;;;;6.95;3.72;;;10.10;95.20;;;;;;5007920;28;20341;-70
2023/05/01 01:37:42;;;;;;;5.85;3.50;;;10.00;95.30;;;;;;5037927;28;20049;-70
2023/05/01 01:40:15;;;;;;;7.90;4.20;;;10.00;95.50;;;;;;5037940;28;20378;-70
2023/05/01 01:42:48;;;;;;;6.13;3.83;;;10.00;95.70;;;;;;5037929;28;20033;-70
2023/05/01 01:45:22;;;;;;;7.43;3.65;;;9.90;95.90;;;;;;5037829;28;20041;-70
2023/05/01 01:47:50;;;;;;;7.85;4.00;;;9.90;96.20;;;;;;5037584;28;20037;-70
2023/05/01 01:50:19;;;;;;;7.43;3.83;;;9.80;96.40;;;;;;5037715;28;20069;-70
2023/05/01 01:52:48;;;;;;;10.30;4.35;;;9.80;96.50;;;;;;5037688;28;20115;-70
2023/05/01 01:55:15;;;;;;;7.65;4.35;;;9.80;96.50;;;;;;5037792;28;20040;-70
2023/05/01 01:57:44;;;;;;;8.40;4.15;;;9.80;96.60;;;;;;5055325;28;20048;-70
2023/05/01 02:00:12;;;;;;;13.57;4.60;;;9.80;96.80;;;;;;5037509;28;20045;-70
2023/05/01 02:02:39;;;;;;;8.13;3.90;;;9.70;96.90;;;;;;5037451;28;20494;-70
2023/05/01 02:05:12;;;;;;;8.02;4.20;;;9.70;97.10;;;;;;5037324;28;20041;-70
2023/05/01 02:07:39;;;;;;;7.72;3.92;;;9.80;97.30;;;;;;5037415;28;20118;-70
2023/05/01 02:10:11;;;;;;;9.52;4.38;;;9.70;97.30;;;;;;5037380;28;20387;-70
2023/05/01 02:12:37;;;;;;;8.35;4.40;;;9.70;97.40;;;;;;5037263;28;20409;-70
2023/05/01 02:15:05;;;;;;;6.97;4.20;;;9.70;97.50;;;;;;5037309;28;20037;-70
2023/05/01 02:17:31;;;;;;;8.52;4.30;;;9.70;97.50;;;;;;5037163;28;20076;-70
2023/05/01 02:19:58;;;;;;;10.50;4.60;;;9.70;97.60;;;;;;5037213;28;20091;-70
2023/05/01 02:22:25;;;;;;;7.07;4.70;;;9.70;97.50;;;;;;5037115;28;20045;-70
2023/05/01 02:24:53;;;;;;;11.60;4.90;;;9.60;97.50;;;;;;5037063;28;20477;-70
2023/05/01 02:27:47;;;;;;;8.98;4.28;;;9.60;97.60;;;;;;5037014;28;20570;-70
2023/05/01 02:30:13;;;;;;;10.65;4.72;;;9.60;97.50;;;;;;5029580;28;20127;-70
2023/05/01 02:32:39;;;;;;;8.60;4.85;;;9.60;97.80;;;;;;5036980;28;20125;-70
2023/05/01 02:35:04;;;;;;;7.63;4.80;;;9.60;97.80;;;;;;5036843;28;20066;-70
2023/05/01 02:37:31;;;;;;;5.88;4.07;;;9.60;97.80;;;;;;5036752;28;20083;-70
2023/05/01 02:39:57;;;;;;;8.88;4.45;;;9.60;97.80;;;;;;5037027;28;20040;-70
2023/05/01 02:42:25;;;;;;;8.00;4.40;;;9.60;97.80;;;;;;5020507;28;20040;-70
2023/05/01 02:45:00;;;;;;;7.88;4.93;;;9.60;97.80;;;;;;5036304;28;20049;-70
2023/05/01 02:47:27;;;;;;;10.27;4.32;;;9.60;97.60;;;;;;5019940;28;20084;-70
2023/05/01 02:49:54;;;;;;;9.13;4.60;;;9.50;97.70;;;;;;5036499;28;20507;-70
2023/05/01 02:52:21;;;;;;;9.30;4.68;;;9.50;97.60;;;;;;5036736;28;20049;-70
2023/05/01 02:54:48;;;;;;;7.97;4.85;;;9.50;97.80;;;;;;5036426;28;20495;-70
2023/05/01 02:57:16;;;;;;;9.77;4.53;;;9.50;97.80;;;;;;5019809;28;20040;-70
2023/05/01 02:59:41;;;;;;;13.02;5.25;;;9.50;97.80;;;;;;5036422;28;20041;-70
2023/05/01 03:02:07;;;;;;;7.50;4.80;;;9.50;97.90;;;;;;5036321;28;20033;-70
2023/05/01 03:04:33;;;;;;;7.00;4.20;;;9.40;97.90;;;;;;5036263;28;20068;-70
2023/05/01 03:06:58;;;;;;;7.82;4.75;;;9.40;97.90;;;;;;5036393;28;20040;-70
2023/05/01 03:09:24;;;;;;;9.90;5.05;;;9.40;98.00;;;;;;5036197;28;20041;-70
2023/05/01 03:11:49;;;;;;;8.90;4.32;;;9.40;97.90;;;;;;5054043;28;20037;-70
2023/05/01 03:14:15;;;;;;;8.63;4.53;;;9.30;98.10;;;;;;5036101;28;20087;-70
2023/05/01 03:16:41;;;;;;;7.85;4.75;;;9.30;98.20;;;;;;5036134;28;20051;-70
2023/05/01 03:19:06;;;;;;;6.65;4.60;;;9.30;98.30;;;;;;5036335;28;20052;-70
2023/05/01 03:21:33;;;;;;;10.40;4.68;;;9.30;98.50;;;;;;5035941;28;20041;-70
2023/05/01 03:23:58;;;;;;;7.72;4.50;;;9.20;98.60;;;;;;5035904;28;20041;-70
2023/05/01 03:26:25;;;;;;;7.43;4.72;;;9.20;98.70;;;;;;5035884;28;20044;-70
2023/05/01 03:28:50;;;;;;;9.35;4.30;;;9.10;98.80;;;;;;5035730;28;20041;-70
2023/05/01 03:31:16;;;;;;;8.27;5.00;;;9.10;98.80;;;;;;5053792;28;20047;-70
2023/05/01 03:33:42;;;;;;;8.00;3.97;;;9.00;98.90;;;;;;5035684;28;20386;-70
2023/05/01 03:36:10;;;;;;;7.88;4.43;;;8.90;99.20;;;;;;5035642;28;20044;-70
2023/05/01 03:38:35;;;;;;;7.85;4.45;;;8.80;99.40;;;;;;5035632;28;20037;-70
2023/05/01 03:41:01;;;;;;;12.38;4.78;;;8.80;99.70;;;;;;5035928;28;20044;-70
2023/05/01 03:43:27;;;;;;;7.38;3.92;;;8.70;99.90;;;;;;5035804;28;20047;-70
2023/05/01 03:45:52;;;;;;;8.32;4.72;;;8.70;99.90;;;;;;5035471;28;20052;-70
2023/05/01 03:48:19;;;;;;;8.82;4.60;;;8.60;99.90;;;;;;5035460;28;20157;-70
2023/05/01 03:50:45;;;;;;;9.95;4.85;;;8.60;99.90;;;;;;5035709;28;20071;-70
2023/05/01 03:53:12;;;;;;;7.22;4.80;;;8.50;99.90;;;;;;5035388;28;20417;-70
2023/05/01 03:55:38;;;;;;;7.88;4.50;;;8.50;99.90;;;;;;5035258;28;20049;-70
2023/05/01 03:58:05;;;;;;;7.60;4.43;;;8.50;99.90;;;;;;5034767;28;20076;-70
2023/05/01 04:00:31;;;;;;;6.75;4.68;;;8.50;99.90;;;;;;5035601;28;20036;-70
2023/05/01 04:02:57;;;;;;;9.82;5.20;;;8.50;99.90;;;;;;5035331;28;20037;-70
2023/05/01 04:05:22;;;;;;;9.27;5.15;;;8.50;99.90;;;;;;5035376;28;20064;-70
2023/05/01 04:07:48;;;;;;;8.10;5.15;;;8.40;99.90;;;;;;5035267;28;20039;-70
2023/05/01 04:10:14;;;;;;;10.35;5.10;;;8.40;99.90;;;;;;5053372;28;20115;-70
2023/05/01 04:12:39;;;;;;;10.70;5.15;;;8.40;99.90;;;;;;5035203;28;20114;-70
2023/05/01 04:15:06;;;;;;;9.02;5.05;;;8.40;99.90;;;;;;5035184;28;20048;-70
2023/05/01 04:17:31;;;;;;;9.70;5.63;;;8.40;99.90;;;;;;5034998;28;20099;-70
2023/05/01 04:19:57;;;;;;;9.80;5.45;;;8.40;99.90;;;;;;5035447;28;20045;-70
2023/05/01 04:22:23;;;;;;;9.38;5.38;;;8.30;99.90;;;;;;5018709;28;20413;-70
2023/05/01 04:24:49;;;;;;;10.00;5.78;;;8.30;99.90;;;;;;5035091;28;20131;-70
2023/05/01 04:27:14;;;;;;;8.30;4.97;;;8.30;99.90;;;;;;5034952;28;20071;-70
2023/05/01 04:29:40;;;;;;;11.07;5.55;;;8.20;99.90;;;;;;5035122;28;20041;-70
2023/05/01 04:32:06;;;;;;;9.30;5.65;;;8.20;99.90;;;;;;5035025;28;20053;-70
2023/05/01 04:34:32;;;;;;;8.50;5.30;;;8.20;99.90;;;;;;5035007;28;20405;-70
2023/05/01 04:36:58;;;;;;;8.77;5.55;;;8.30;99.90;;;;;;5034843;28;20041;-70
2023/05/01 04:39:24;;;;;;;9.90;6.18;;;8.30;99.90;;;;;;5035251;28;20108;-70
2023/05/01 04:41:49;;;;;;;7.20;5.55;;;8.30;99.90;;;;;;5034921;28;20045;-70
2023/05/01 04:44:15;;;;;;;9.32;5.65;;;8.30;99.90;;;;;;5034893;28;20047;-70
2023/05/01 04:46:41;;;;;;;10.63;5.80;;;8.40;99.90;;;;;;5034815;28;20049;-70
2023/05/01 04:49:07;;;;;;;10.75;6.07;;;8.40;99.90;;;;;;5034926;28;20041;-70
2023/05/01 04:51:32;;;;;;;10.20;6.13;;;8.40;99.90;;;;;;5034966;28;20559;-70
2023/05/01 04:53:58;;;;;;;9.70;6.50;;;8.40;99.90;;;;;;5035333;28;20052;-70
2023/05/01 04:56:25;;;;;;;9.23;6.38;;;8.40;99.90;;;;;;5034765;28;20541;-70
2023/05/01 04:58:50;;;;;;;10.90;6.35;;;8.50;99.90;;;;;;5034710;28;20045;-70
2023/05/01 05:01:16;;;;;;;11.82;6.80;;;8.50;99.90;;;;;;5034721;28;20089;-70
2023/05/01 05:03:42;;;;;;;9.90;6.10;;;8.60;99.90;;;;;;5034809;28;20408;-70
2023/05/01 05:06:07;;;;;;;10.73;6.05;;;8.60;99.90;;;;;;5034714;28;20041;-70
2023/05/01 05:08:33;;;;;;;13.07;6.70;;;8.60;99.90;;;;;;5036647;28;20094;-70
2023/05/01 05:10:59;;;;;;;9.30;6.28;;;8.70;99.90;;;;;;5038415;28;20052;-70
2023/05/01 05:13:26;;;;;;;11.20;6.63;;;8.70;99.90;;;;;;5038325;28;20413;-70
2023/05/01 05:15:51;;;;;;;12.35;6.68;;;8.80;99.90;;;;;;5038428;28;20051;-70
2023/05/01 05:18:17;;;;;;;15.55;6.93;;;8.80;99.90;;;;;;5056254;28;20029;-70
2023/05/01 05:20:43;;;;;;;8.98;5.95;;;8.80;99.90;;;;;;5038303;28;20029;-70
2023/05/01 05:23:09;;;;;;;10.85;6.55;;;8.90;99.90;;;;;;5038195;28;20115;-70
2023/05/01 05:25:34;;;;;;;11.13;6.40;;;8.90;99.90;;;;;;5038433;28;20041;-71
2023/05/01 05:28:00;;;;;;;8.88;5.82;;;8.90;99.90;;;;;;5038251;28;20401;-70
2023/05/01 05:30:26;;;;;;;14.32;6.05;;;9.00;99.90;;;;;;5038031;28;20519;-70
2023/05/01 05:32:52;;;;;;;10.70;6.15;;;9.10;99.90;;;;;;5038080;28;20045;-70
2023/05/01 05:35:18;;;;;;;9.68;6.15;;;9.20;99.90;;;;;;5037898;28;20045;-70
2023/05/01 05:37:43;;;;;;;9.35;5.72;;;9.20;99.90;;;;;;5037846;28;20036;-68
2023/05/01 05:40:09;;;;;;;8.93;5.38;;;9.30;99.90;;;;;;5038195;28;20052;-68
2023/05/01 05:42:35;;;;;;;13.75;6.38;;;9.40;99.90;;;;;;5037925;28;20045;-68
2023/05/01 05:45:01;;;;;;;10.55;5.72;;;9.40;99.90;;;;;;5038085;28;20068;-68
2023/05/01 05:47:26;;;;;;;10.82;6.15;;;9.50;99.90;;;;;;5037853;28;20466;-68
2023/05/01 05:49:54;;;;;;;11.15;5.63;;;9.60;99.90;;;;;;5037764;28;20517;-68
2023/05/01 05:52:20;;;;;;;12.07;6.25;;;9.70;99.90;;;;;;5037642;28;20053;-68
2023/05/01 05:54:45;;;;;;;10.95;5.40;;;9.70;99.90;;;;;;5021146;28;20052;-68
2023/05/01 05:57:11;;;;;;;10.98;5.50;;;9.80;99.90;;;;;;5055576;28;20036;-68
2023/05/01 05:59:37;;;;;;;10.48;5.68;;;9.90;99.90;;;;;;5021067;28;20041;-68
2023/05/01 06:02:03;;;;;;;10.55;5.10;;;9.90;99.80;;;;;;5037452;28;20045;-68
2023/05/01 06:04:28;;;;;;;9.27;4.95;;;10.00;99.10;;;;;;5021337;28;20052;-68
2023/05/01 06:06:54;;;;;;;9.20;4.85;;;10.00;98.70;;;;;;5037598;28;20382;-68
2023/05/01 06:09:20;;;;;;;9.43;4.88;;;10.10;98.30;;;;;;5037646;28;20042;-68
2023/05/01 06:11:47;;;;;;;12.77;5.78;;;10.20;98.10;;;;;;5020935;28;20041;-68
2023/05/01 06:14:12;;;;;;;10.13;5.90;;;10.20;97.70;;;;;;5020772;28;20036;-68
2023/05/01 06:16:38;;;;;;;12.88;5.18;;;10.30;97.40;;;;;;5037102;28;20045;-70
2023/05/01 06:19:04;;;;;;;10.57;6.00;;;10.30;97.10;;;;;;5021299;28;20159;-69
2023/05/01 06:21:31;;;;;;;9.43;5.07;;;10.40;96.80;;;;;;5037206;28;20162;-70
2023/05/01 06:23:57;;;;;;;7.35;4.57;;;10.50;96.50;;;;;;5020626;28;20037;-70
2023/05/01 06:26:22;;;;;;;12.80;5.05;;;10.60;96.40;;;;;;5037306;28;20059;-69
2023/05/01 06:28:48;;;;;;;8.35;4.97;;;10.70;96.10;;;;;;5037223;28;20044;-70
2023/05/01 06:31:14;;;;;;;11.88;5.45;;;10.80;96.10;;;;;;5037050;28;20044;-70
2023/05/01 06:33:40;;;;;;;9.50;5.78;;;10.80;96.10;;;;;;5036902;28;20056;-70
2023/05/01 06:36:05;;;;;;;7.85;5.18;;;10.90;96.00;;;;;;5037020;28;20041;-70
2023/05/01 06:38:31;;;;;;;9.70;4.80;;;11.00;95.60;;;;;;5036709;28;20482;-70
2023/05/01 06:40:57;;;;;;;10.63;4.65;;;11.10;95.10;;;;;;5036778;28;20500;-70
2023/05/01 06:43:29;;;;;;;7.22;4.15;;;11.20;95.00;;;;;;5036983;28;20037;-70
2023/05/01 06:45:55;;;;;;;8.80;4.32;;;11.30;94.30;;;;;;5019407;28;20037;-70
2023/05/01 06:48:21;;;;;;;7.82;4.10;;;11.50;93.40;;;;;;5036596;28;20048;-70
2023/05/01 06:50:46;;;;;;;8.88;4.63;;;11.60;93.60;;;;;;5036814;28;20045;-70
2023/05/01 06:53:12;;;;;;;9.05;4.18;;;11.70;93.00;;;;;;5054419;28;20031;-68
2023/05/01 06:55:38;;;;;;;11.35;4.43;;;11.80;92.70;;;;;;5036425;28;20386;-68
2023/05/01 06:58:05;;;;;;;8.45;4.10;;;11.90;92.50;;;;;;5036677;28;20077;-68
2023/05/01 07:00:31;;;;;;;8.68;3.55;;;12.00;92.50;;;;;;5020133;28;20037;-68
2023/05/01 07:02:57;;;;;;;9.70;3.42;;;12.00;91.50;;;;;;5036618;28;20064;-68
2023/05/01 07:05:22;;;;;;;8.18;4.18;;;12.10;90.90;;;;;;5036302;28;20485;-68
2023/05/01 07:07:48;;;;;;;9.88;4.65;;;12.20;90.30;;;;;;5036391;28;20037;-68
2023/05/01 07:10:14;;;;;;;10.27;3.90;;;12.30;90.60;;;;;;5036674;28;20049;-68
2023/05/01 07:12:40;;;;;;;9.60;4.05;;;12.40;89.70;;;;;;5036337;28;20033;-68
2023/05/01 07:15:06;;;;;;;11.02;5.13;;;12.50;88.60;;;;;;5036182;28;20086;-68
2023/05/01 07:17:33;;;;;;;11.60;5.22;;;12.60;90.00;;;;;;5035989;28;20067;-68
2023/05/01 07:19:59;;;;;;;10.88;4.60;;;12.60;91.00;;;;;;5036290;28;20036;-68
2023/05/01 07:22:27;;;;;;;11.00;4.13;;;12.70;90.80;;;;;;5036016;28;20520;-67
2023/05/01 07:24:53;;;;;;;8.45;3.85;;;12.80;89.00;;;;;;5036025;28;20045;-68
2023/05/01 07:27:19;;;;;;;8.05;4.10;;;12.90;87.50;;;;;;5035911;28;20048;-68
2023/05/01 07:29:44;;;;;;;11.60;4.43;;;13.00;87.20;;;;;;5035831;28;20147;-69
2023/05/01 07:32:10;;;;;;;12.93;4.13;;;13.00;86.40;;;;;;5035126;28;20041;-68
2023/05/01 07:34:36;;;;;;;10.82;3.97;;;13.10;85.90;;;;;;5035809;28;20413;-67
2023/05/01 07:37:03;;;;;;;7.32;3.75;;;13.20;85.30;;;;;;5035541;28;20076;-67
2023/05/01 07:39:29;;;;;;;8.32;3.40;;;13.30;83.80;;;;;;5036002;28;20440;-68
2023/05/01 07:41:56;;;;;;;10.32;4.10;;;13.30;84.70;;;;;;5035604;28;20460;-68
2023/05/01 07:44:22;;;;;;;11.93;3.85;;;13.40;84.50;;;;;;5035488;28;20041;-67
2023/05/01 07:46:48;;;;;;;6.63;3.97;;;13.30;83.90;;;;;;5035377;28;20056;-68
2023/05/01 07:49:14;;;;;;;9.07;4.03;;;13.20;83.30;;;;;;5035596;28;20076;-67
2023/05/01 07:51:40;;;;;;;11.55;4.18;;;13.20;82.40;;;;;;5035971;28;20059;-67
2023/05/01 07:54:05;;;;;;;11.23;5.00;;;13.20;82.80;;;;;;5035486;28;20087;-68
2023/05/01 07:56:31;;;;;;;9.93;4.07;;;13.20;83.00;;;;;;5035391;28;20081;-67
2023/05/01 07:58:57;;;;;;;11.77;4.22;;;13.20;82.40;;;;;;5035300;28;20037;-67
2023/05/01 08:01:23;;;;;;;8.98;4.03;;;13.30;82.80;;;;;;5035744;28;20037;-68
2023/05/01 08:03:48;;;;;;;9.18;4.32;;;13.40;82.80;;;;;;5035638;28;20489;-68
2023/05/01 08:06:14;;;;;;;9.90;4.80;;;13.50;83.70;;;;;;5035617;28;20041;-68
2023/05/01 08:08:39;;;;;;;9.05;4.22;;;13.60;82.70;;;;;;5035235;28;20070;-67
2023/05/01 08:11:05;;;;;;;9.18;4.10;;;13.80;82.40;;;;;;5035563;28;20053;-67
2023/05/01 08:13:31;;;;;;;9.13;4.15;;;13.90;81.30;;;;;;5053103;28;20045;-67
2023/05/01 08:16:03;;;;;;;9.75;4.03;;;14.00;80.60;;;;;;5035570;28;20044;-67
2023/05/01 08:18:29;;;;;;;8.52;4.00;;;14.10;79.90;;;;;;5035127;28;20048;-67
2023/05/01 08:20:55;;;;;;;9.50;3.80;;;14.20;78.80;;;;;;5035267;28;20405;-67
2023/05/01 08:23:21;;;;;;;8.25;4.13;;;14.40;77.20;;;;;;5035272;28;20041;-67
2023/05/01 08:25:49;;;;;;;9.45;4.50;;;14.60;78.20;;;;;;5018524;28;20571;-67
2023/05/01 08:28:16;;;;;;;9.02;4.05;;;14.80;78.40;;;;;;5018454;28;20051;-67
2023/05/01 08:30:42;;;;;;;8.65;4.03;;;15.00;78.80;;;;;;5035183;28;20486;-67
2023/05/01 08:33:08;;;;;;;9.52;4.82;;;15.20;76.60;;;;;;5035277;28;20067;-67
2023/05/01 08:35:33;;;;;;;13.07;4.60;;;15.30;75.60;;;;;;5034947;28;20498;-67
2023/05/01 08:38:00;;;;;;;13.13;3.90;;;15.50;76.00;;;;;;5034919;28;20041;-68
2023/05/01 08:40:26;;;;;;;12.50;4.05;;;15.60;75.50;;;;;;5035063;28;20045;-67
2023/05/01 08:42:54;;;;;;;6.78;3.67;;;15.80;73.90;;;;;;5035935;28;20041;-67
2023/05/01 08:45:23;;;;;;;8.15;3.83;;;15.90;72.60;;;;;;5038899;28;20383;-67
2023/05/01 08:47:51;;;;;;;10.65;3.45;;;16.10;70.80;;;;;;5022211;28;20490;-67
2023/05/01 08:50:17;;;;;;;9.45;4.20;;;16.30;70.40;;;;;;5039040;28;20497;-67
2023/05/01 08:52:43;;;;;;;8.98;3.80;;;16.40;69.80;;;;;;5039087;28;20128;-67
2023/05/01 08:55:14;;;;;;;9.73;3.70;;;16.60;69.70;;;;;;5038897;28;20067;-68
2023/05/01 08:57:48;;;;;;;9.30;3.65;;;16.80;68.70;;;;;;5038494;28;20041;-67
2023/05/01 09:00:18;;;;;;;7.53;3.65;;;16.90;68.30;;;;;;5038533;28;20116;-68
2023/05/01 09:02:47;;;;;;;6.93;2.80;;;17.10;67.60;;;;;;5021976;28;20041;-68
2023/05/01 09:05:17;;;;;;;11.75;3.38;;;17.10;66.30;;;;;;5038760;28;20433;-69
2023/05/01 09:07:44;;;;;;;8.55;2.78;;;17.20;65.20;;;;;;5038447;28;20055;-69
2023/05/01 09:10:16;;;;;;;8.05;3.33;;;17.30;65.70;;;;;;5038449;28;20126;-69
2023/05/01 09:12:45;;;;;;;9.18;2.85;;;17.40;64.90;;;;;;5038416;28;20045;-69
2023/05/01 09:15:11;;;;;;;5.57;2.85;;;17.50;63.90;;;;;;5038649;28;20059;-71
2023/05/01 09:17:38;;;;;;;11.05;2.78;;;17.60;62.50;;;;;;5038010;28;20083;-68
2023/05/01 09:20:05;;;;;;;6.10;2.25;;;17.70;63.40;;;;;;5038200;28;20052;-68
2023/05/01 09:22:32;;;;;;;5.80;2.17;;;17.80;63.50;;;;;;5038496;28;20048;-68
2023/05/01 09:24:58;;;;;;;6.00;2.10;;;17.90;62.30;;;;;;5038314;28;20045;-68
2023/05/01 09:27:25;;;;;;;7.20;2.35;;;18.00;61.50;;;;;;5038094;28;20041;-68
2023/05/01 09:29:51;;;;;;;5.90;2.05;;;18.30;62.10;;;;;;5038319;28;20118;-68
2023/05/01 09:32:19;;;;;;;7.47;2.30;;;18.40;62.00;;;;;;5038312;28;20490;-68
2023/05/01 09:34:46;;;;;;;6.78;2.25;;;18.50;61.00;;;;;;5038225;28;20071;-68
2023/05/01 09:37:32;;;;;;;5.22;1.77;;;18.70;60.80;;;;;;5021253;28;20095;-68
2023/05/01 09:40:13;;;;;;;4.50;1.60;;;18.90;59.90;;;;;;5037991;28;20496;-68
2023/05/01 09:42:47;;;;;;;8.38;2.38;;;19.00;60.10;;;;;;5037856;28;20080;-68
2023/05/01 09:45:13;;;;;;;4.47;1.58;;;19.30;60.60;;;;;;5055958;28;20033;-68
2023/05/01 09:47:42;;;;;;;4.40;1.70;;;19.40;59.30;;;;;;5037571;28;20090;-68
2023/05/01 09:50:09;;;;;;;5.78;1.70;;;19.60;58.40;;;;;;5037727;28;20132;-68
2023/05/01 09:52:35;;;;;;;6.85;1.85;;;19.80;57.50;;;;;;5037930;28;20600;-68
2023/05/01 09:55:15;;;;;;;5.88;2.05;;;20.00;57.70;;;;;;5054680;28;20055;-69
2023/05/01 09:57:41;;;;;;;4.43;1.70;;;20.10;57.70;;;;;;5055290;28;20053;-69
2023/05/01 10:00:09;;;;;;;4.90;1.95;;;20.20;58.00;;;;;;5037551;28;20047;-69
2023/05/01 10:02:35;;;;;;;10.45;2.60;;;20.30;57.00;;;;;;5055615;28;20033;-69
2023/05/01 10:05:01;;;;;;;8.00;2.58;;;20.40;57.50;;;;;;5055388;28;20049;-68
2023/05/01 10:07:28;;;;;;;7.10;1.85;;;20.40;58.10;;;;;;5037338;28;20468;-69
2023/05/01 10:09:54;;;;;;;8.05;2.40;;;20.50;58.30;;;;;;5037322;28;20049;-69
2023/05/01 10:12:27;;;;;;;8.00;2.28;;;20.70;56.90;;;;;;5037273;28;20527;-69
2023/05/01 10:14:54;;;;;;;18.60;2.88;;;20.80;57.30;;;;;;5037234;28;20061;-69
2023/05/01 10:17:20;;;;;;;4.97;1.67;;;20.90;56.90;;;;;;5037040;28;20488;-69
2023/05/01 10:19:46;;;;;;;9.20;2.22;;;20.90;56.10;;;;;;5055359;28;20077;-69
2023/05/01 10:22:13;;;;;;;16.85;0.93;;;20.90;56.10;;;;;;5037326;28;20045;-69
2023/05/01 10:24:39;;;;;;;4.15;0.52;;;20.90;55.00;;;;;;5020606;28;20464;-69
2023/05/01 10:27:09;;;;;;;3.65;0.88;;;20.90;54.70;;;;;;5036971;28;20079;-69
2023/05/01 10:29:38;;;;;;;4.65;1.05;;;21.00;53.90;;;;;;5037220;28;20116;-69
2023/05/01 10:32:06;;;;;;;6.60;1.00;;;21.00;53.80;;;;;;5036963;28;20094;-69
2023/05/01 10:34:34;;;;;;;3.70;1.48;;;21.10;53.80;;;;;;5036878;28;20052;-69
2023/05/01 10:37:08;;;;;;;4.43;1.25;;;21.10;53.00;;;;;;5036732;28;20049;-69
2023/05/01 10:39:35;;;;;;;5.63;1.33;;;21.00;52.60;;;;;;5036977;28;20489;-69
2023/05/01 10:42:10;;;;;;;4.53;1.35;;;21.10;53.80;;;;;;5036785;28;20417;-69
2023/05/01 10:44:36;;;;;;;3.85;1.42;;;21.10;54.90;;;;;;5036781;28;20044;-69
2023/05/01 10:47:24;;;;;;;4.57;1.38;;;21.20;54.00;;;;;;5036403;28;20048;-69
2023/05/01 10:50:09;;;;;;;4.03;1.33;;;21.20;54.00;;;;;;5036829;28;20048;-69
2023/05/01 10:53:10;;;;;;;6.82;2.05;;;21.30;53.80;;;;;;5036537;28;20044;-69
2023/05/01 10:55:36;;;;;;;7.57;1.80;;;21.40;53.60;;;;;;5020192;28;20057;-69
2023/05/01 10:58:02;;;;;;;4.57;1.70;;;21.50;54.00;;;;;;5036373;28;20041;-69
2023/05/01 11:00:28;;;;;;;6.55;2.03;;;21.60;53.90;;;;;;5054940;28;20037;-69
2023/05/01 11:03:22;;;;;;;5.60;1.80;;;21.60;53.30;;;;;;5036598;28;20099;-69
2023/05/01 11:06:01;;;;;;;5.32;2.63;;;21.70;52.70;;;;;;5036006;28;20040;-69
2023/05/01 11:08:35;;;;;;;4.18;1.70;;;21.60;52.20;;;;;;5019949;28;20397;-69
2023/05/01 11:11:19;;;;;;;5.88;1.63;;;21.70;53.50;;;;;;5019799;28;20068;-69
2023/05/01 11:13:59;;;;;;;5.60;2.85;;;21.90;53.90;;;;;;5036166;28;20053;-69
2023/05/01 11:16:36;;;;;;;8.13;2.17;;;22.00;54.00;;;;;;5036015;28;20405;-68
2023/05/01 11:19:06;;;;;;;6.15;2.47;;;22.20;51.80;;;;;;5036344;28;20068;-68
2023/05/01 11:21:34;;;;;;;8.20;1.50;;;22.40;52.70;;;;;;5036009;28;20045;-69
2023/05/01 11:24:00;;;;;;;4.13;1.33;;;22.60;52.10;;;;;;5035966;28;20049;-69
2023/05/01 11:26:28;;;;;;;5.75;1.00;;;22.60;52.20;;;;;;5036125;28;20041;-68
2023/05/01 11:28:55;;;;;;;2.58;0.90;;;22.60;51.20;;;;;;5035802;28;20126;-68
2023/05/01 11:31:21;;;;;;;2.13;1.08;;;22.60;50.80;;;;;;5053721;28;20064;-68
2023/05/01 11:33:47;;;;;;;3.08;0.93;;;22.70;50.80;;;;;;5035839;28;20412;-68
2023/05/01 11:36:13;;;;;;;3.42;1.13;;;22.90;51.20;;;;;;5053843;28;20040;-68
2023/05/01 11:38:59;;;;;;;4.25;1.10;;;22.80;49.80;;;;;;5035923;28;20036;-69
2023/05/01 11:41:26;;;;;;;1.25;0.80;;;22.70;49.60;;;;;;5035633;28;20052;-68
2023/05/01 11:43:57;;;;;;;3.22;0.93;;;22.50;50.60;;;;;;5035906;28;20044;-68
2023/05/01 11:46:28;;;;;;;4.78;1.10;;;22.80;50.30;;;;;;5035615;28;20099;-68
2023/05/01 11:49:04;;;;;;;7.65;1.27;;;22.90;49.70;;;;;;5035849;28;20396;-68
2023/05/01 11:51:30;;;;;;;4.32;0.90;;;22.90;48.30;;;;;;5053429;28;20487;-68
2023/05/01 11:54:00;;;;;;;3.63;0.70;;;23.00;48.60;;;;;;5035470;28;20041;-68
2023/05/01 11:56:26;;;;;;;2.40;0.80;;;23.20;48.00;;;;;;5035605;28;20147;-68
2023/05/01 11:58:56;;;;;;;3.58;0.80;;;23.20;47.50;;;;;;5035632;28;20537;-68
2023/05/01 12:01:43;;;;;;;1.88;0.60;;;23.20;48.00;;;;;;5053668;28;20056;-68
2023/05/01 12:04:10;;;;;;;4.88;1.20;;;23.10;47.30;;;;;;5035602;28;20075;-68
2023/05/01 12:06:45;;;;;;;3.60;0.82;;;23.10;47.70;;;;;;5035265;28;20095;-68
2023/05/01 12:09:25;;;;;;;2.22;0.70;;;23.10;47.50;;;;;;5053101;28;20044;-68
2023/05/01 12:11:52;;;;;;;3.15;0.65;;;23.20;47.30;;;;;;5035318;28;20045;-68
2023/05/01 12:14:20;;;;;;;2.05;0.65;;;23.20;48.00;;;;;;5035487;28;20032;-69
2023/05/01 12:16:46;;;;;;;3.83;0.70;;;23.20;47.70;;;;;;5035061;28;20084;-69
2023/05/01 12:19:13;;;;;;;2.15;0.98;;;23.10;47.30;;;;;;5034629;28;20041;-69
2023/05/01 12:21:39;;;;;;;4.00;1.38;;;23.00;47.40;;;;;;5053244;28;20036;-69
2023/05/01 12:24:14;;;;;;;4.82;1.23;;;22.90;47.80;;;;;;5035173;28;20047;-69
2023/05/01 12:26:41;;;;;;;2.30;1.30;;;23.00;48.70;;;;;;5035049;28;20044;-69
2023/05/01 12:29:07;;;;;;;3.28;1.20;;;23.00;47.70;;;;;;5035402;28;20111;-69
2023/05/01 12:31:35;;;;;;;3.20;1.02;;;23.00;48.10;;;;;;5035131;28;20052;-69
2023/05/01 12:34:01;;;;;;;5.22;1.35;;;22.90;48.70;;;;;;5018589;28;20382;-69
2023/05/01 12:36:29;;;;;;;4.55;1.60;;;22.90;48.50;;;;;;5035147;28;20056;-69
2023/05/01 12:39:01;;;;;;;6.60;1.60;;;22.70;48.90;;;;;;5018534;28;20455;-69
2023/05/01 12:41:38;;;;;;;4.72;1.42;;;22.50;48.30;;;;;;5018886;28;20064;-69
2023/05/01 12:44:24;;;;;;;3.83;1.20;;;22.30;49.10;;;;;;5035281;28;20135;-68
2023/05/01 12:47:01;;;;;;;3.35;1.20;;;22.40;49.30;;;;;;5018370;28;20428;-68
2023/05/01 12:49:28;;;;;;;3.88;1.35;;;22.50;49.80;;;;;;5034917;28;20124;-68
2023/05/01 12:51:56;;;;;;;4.47;1.30;;;22.80;50.10;;;;;;5034895;28;20095;-68
2023/05/01 12:54:27;;;;;;;2.25;1.10;;;23.00;49.80;;;;;;5034835;28;20080;-69